createdAt,value
2023-04-29T00:00:06.894Z,100.00
2023-04-29T00:02:37.670Z,100.00
2023-04-29T00:05:11.055Z,100.00
2023-04-29T00:07:42.313Z,100.00
2023-04-29T00:10:14.917Z,100.00
2023-04-29T00:12:49.393Z,100.00
2023-04-29T00:15:21.946Z,100.00
2023-04-29T00:17:51.815Z,100.00
2023-04-29T00:20:21.836Z,100.00
2023-04-29T00:22:51.703Z,100.00
2023-04-29T00:25:21.589Z,100.00
2023-04-29T00:27:51.480Z,100.00
2023-04-29T00:30:23.902Z,100.00
2023-04-29T00:32:53.952Z,100.00
2023-04-29T00:35:23.826Z,100.00
2023-04-29T00:37:53.899Z,100.00
2023-04-29T00:40:24.145Z,100.00
2023-04-29T00:42:54.186Z,100.00
2023-04-29T00:45:27.876Z,100.00
2023-04-29T00:47:57.738Z,100.00
2023-04-29T00:50:28.075Z,100.00
2023-04-29T00:52:57.942Z,100.00
2023-04-29T00:55:29.206Z,100.00
2023-04-29T00:57:59.913Z,100.00
2023-04-29T01:00:33.199Z,100.00
2023-04-29T01:03:04.428Z,100.00
2023-04-29T01:05:40.449Z,100.00
2023-04-29T01:08:32.901Z,100.00
2023-04-29T01:11:11.091Z,100.00
2023-04-29T01:13:47.239Z,100.00
2023-04-29T01:16:26.496Z,100.00
2023-04-29T01:19:01.636Z,100.00
2023-04-29T01:21:32.306Z,100.00
2023-04-29T01:24:04.726Z,100.00
2023-04-29T01:26:36.148Z,100.00
2023-04-29T01:29:27.737Z,100.00
2023-04-29T01:32:09.238Z,100.00
2023-04-29T01:34:48.020Z,100.00
2023-04-29T01:37:23.027Z,100.00
2023-04-29T01:40:11.204Z,100.00
2023-04-29T01:42:47.256Z,100.00
2023-04-29T01:45:21.574Z,100.00
2023-04-29T01:47:56.194Z,100.00
2023-04-29T01:50:26.885Z,100.00
2023-04-29T01:52:56.752Z,100.00
2023-04-29T01:55:29.468Z,100.00
2023-04-29T01:57:59.290Z,100.00
2023-04-29T02:00:29.935Z,100.00
2023-04-29T02:02:59.905Z,100.00
2023-04-29T02:05:34.542Z,100.00
2023-04-29T02:08:10.377Z,100.00
2023-04-29T02:10:45.506Z,100.00
2023-04-29T02:13:15.347Z,100.00
2023-04-29T02:15:45.217Z,100.00
2023-04-29T02:18:15.070Z,100.00
2023-04-29T02:20:45.095Z,100.00
2023-04-29T02:23:14.904Z,100.00
2023-04-29T02:25:47.981Z,100.00
2023-04-29T02:28:18.082Z,100.00
2023-04-29T02:30:48.096Z,100.00
2023-04-29T02:33:18.618Z,100.00
2023-04-29T02:35:48.636Z,100.00
2023-04-29T02:38:18.524Z,100.00
2023-04-29T02:40:50.943Z,100.00
2023-04-29T02:43:20.733Z,100.00
2023-04-29T02:45:50.577Z,100.00
2023-04-29T02:48:21.546Z,100.00
2023-04-29T02:50:51.768Z,100.00
2023-04-29T02:53:22.122Z,100.00
2023-04-29T02:55:54.558Z,100.00
2023-04-29T02:58:24.428Z,100.00
2023-04-29T03:00:54.292Z,100.00
2023-04-29T03:03:24.286Z,100.00
2023-04-29T03:06:01.114Z,100.00
2023-04-29T03:08:30.921Z,100.00
2023-04-29T03:11:05.687Z,100.00
2023-04-29T03:13:35.551Z,100.00
2023-04-29T03:16:05.368Z,100.00
2023-04-29T03:18:35.217Z,100.00
2023-04-29T03:21:05.086Z,100.00
2023-04-29T03:23:34.913Z,100.00
2023-04-29T03:26:07.427Z,100.00
2023-04-29T03:28:37.320Z,100.00
2023-04-29T03:31:07.443Z,100.00
2023-04-29T03:33:39.592Z,100.00
2023-04-29T03:36:10.809Z,100.00
2023-04-29T03:38:40.600Z,100.00
2023-04-29T03:41:13.340Z,100.00
2023-04-29T03:43:45.133Z,100.00
2023-04-29T03:46:14.961Z,100.00
2023-04-29T03:48:44.774Z,100.00
2023-04-29T03:51:15.137Z,100.00
2023-04-29T03:53:48.080Z,100.00
2023-04-29T03:56:20.720Z,100.00
2023-04-29T03:58:50.587Z,100.00
2023-04-29T04:01:20.413Z,100.00
2023-04-29T04:03:51.152Z,100.00
2023-04-29T04:06:21.196Z,100.00
2023-04-29T04:08:51.016Z,100.00
2023-04-29T04:11:23.477Z,100.00
2023-04-29T04:13:53.317Z,100.00
2023-04-29T04:16:23.113Z,100.00
2023-04-29T04:18:52.909Z,100.00
2023-04-29T04:21:22.725Z,100.00
2023-04-29T04:23:52.527Z,100.00
2023-04-29T04:26:25.036Z,100.00
2023-04-29T04:28:54.873Z,100.00
2023-04-29T04:31:24.724Z,100.00
2023-04-29T04:33:54.563Z,100.00
2023-04-29T04:36:24.458Z,100.00
2023-04-29T04:38:54.282Z,100.00
2023-04-29T04:41:27.038Z,100.00
2023-04-29T04:43:56.831Z,100.00
2023-04-29T04:46:26.712Z,100.00
2023-04-29T04:48:56.583Z,100.00
2023-04-29T04:51:29.145Z,100.00
2023-04-29T04:53:58.969Z,100.00
2023-04-29T04:56:31.393Z,100.00
2023-04-29T04:59:01.219Z,100.00
2023-04-29T05:01:31.068Z,100.00
2023-04-29T05:04:01.028Z,100.00
2023-04-29T05:06:35.574Z,100.00
2023-04-29T05:09:05.651Z,100.00
2023-04-29T05:11:38.877Z,100.00
2023-04-29T05:14:09.200Z,100.00
2023-04-29T05:16:39.052Z,100.00
2023-04-29T05:19:09.843Z,100.00
2023-04-29T05:21:39.682Z,100.00
2023-04-29T05:24:09.772Z,100.00
2023-04-29T05:26:43.906Z,100.00
2023-04-29T05:29:13.885Z,100.00
2023-04-29T05:31:43.765Z,100.00
2023-04-29T05:34:13.650Z,100.00
2023-04-29T05:36:43.494Z,100.00
2023-04-29T05:39:13.394Z,100.00
2023-04-29T05:41:46.051Z,100.00
2023-04-29T05:44:15.895Z,100.00
2023-04-29T05:46:46.635Z,100.00
2023-04-29T05:49:16.466Z,99.99
2023-04-29T05:51:46.346Z,98.99
2023-04-29T05:54:16.167Z,98.53
2023-04-29T05:56:48.711Z,98.37
2023-04-29T05:59:18.559Z,97.90
2023-04-29T06:01:48.919Z,97.42
2023-04-29T06:04:18.836Z,97.01
2023-04-29T06:06:50.636Z,96.87
2023-04-29T06:09:27.582Z,96.57
2023-04-29T06:12:00.859Z,96.20
2023-04-29T06:14:30.678Z,95.72
2023-04-29T06:17:00.628Z,95.29
2023-04-29T06:19:30.533Z,94.98
2023-04-29T06:22:00.310Z,94.53
2023-04-29T06:24:30.169Z,93.39
2023-04-29T06:27:04.494Z,92.39
2023-04-29T06:29:36.073Z,92.06
2023-04-29T06:32:05.969Z,91.50
2023-04-29T06:34:36.350Z,91.20
2023-04-29T06:37:06.148Z,91.02
2023-04-29T06:39:35.987Z,90.85
2023-04-29T06:42:08.470Z,90.20
2023-04-29T06:44:38.300Z,89.58
2023-04-29T06:47:08.205Z,89.38
2023-04-29T06:49:38.142Z,89.65
2023-04-29T06:52:10.510Z,89.30
2023-04-29T06:54:40.373Z,88.50
2023-04-29T06:57:12.937Z,88.37
2023-04-29T06:59:42.826Z,88.45
2023-04-29T07:02:12.645Z,88.46
2023-04-29T07:04:42.681Z,88.86
2023-04-29T07:07:12.652Z,88.24
2023-04-29T07:09:42.552Z,87.59
2023-04-29T07:12:15.064Z,87.24
2023-04-29T07:14:51.204Z,86.81
2023-04-29T07:17:24.028Z,86.14
2023-04-29T07:19:58.056Z,86.10
2023-04-29T07:22:29.684Z,85.33
2023-04-29T07:24:59.633Z,84.94
2023-04-29T07:27:32.270Z,84.21
2023-04-29T07:30:03.388Z,83.36
2023-04-29T07:32:34.304Z,83.53
2023-04-29T07:35:04.173Z,82.39
2023-04-29T07:37:34.341Z,81.49
2023-04-29T07:40:04.156Z,80.75
2023-04-29T07:42:36.537Z,80.00
2023-04-29T07:45:06.762Z,80.18
2023-04-29T07:47:36.855Z,80.37
2023-04-29T07:50:07.048Z,80.17
2023-04-29T07:52:37.944Z,79.40
2023-04-29T07:55:08.665Z,78.92
2023-04-29T07:57:41.091Z,78.36
2023-04-29T08:00:12.702Z,78.28
2023-04-29T08:02:43.293Z,77.80
2023-04-29T08:05:13.700Z,77.36
2023-04-29T08:07:43.772Z,77.08
2023-04-29T08:10:13.713Z,77.19
2023-04-29T08:12:51.832Z,77.00
2023-04-29T08:15:21.652Z,76.97
2023-04-29T08:17:51.500Z,77.18
2023-04-29T08:20:21.750Z,77.04
2023-04-29T08:22:51.591Z,76.93
2023-04-29T08:25:21.765Z,77.02
2023-04-29T08:27:54.154Z,76.84
2023-04-29T08:30:24.126Z,76.29
2023-04-29T08:32:54.005Z,76.81
2023-04-29T08:35:24.046Z,77.43
2023-04-29T08:37:56.061Z,77.61
2023-04-29T08:40:26.640Z,77.75
2023-04-29T08:43:00.425Z,77.09
2023-04-29T08:45:32.654Z,76.25
2023-04-29T08:48:05.652Z,76.12
2023-04-29T08:50:40.237Z,76.48
2023-04-29T08:53:10.891Z,75.36
2023-04-29T08:55:45.141Z,75.76
2023-04-29T08:58:20.515Z,75.99
2023-04-29T09:00:51.821Z,75.55
2023-04-29T09:03:27.984Z,75.06
2023-04-29T09:06:05.580Z,75.16
2023-04-29T09:08:36.485Z,74.85
2023-04-29T09:11:07.537Z,74.87
2023-04-29T09:13:40.125Z,75.05
2023-04-29T09:16:14.190Z,74.96
2023-04-29T09:18:49.039Z,75.45
2023-04-29T09:21:22.320Z,75.88
2023-04-29T09:23:54.647Z,75.07
2023-04-29T09:26:25.323Z,74.62
2023-04-29T09:29:19.369Z,74.37
2023-04-29T09:31:49.888Z,74.05
2023-04-29T09:34:19.978Z,74.13
2023-04-29T09:36:51.221Z,73.79
2023-04-29T09:39:22.597Z,73.91
2023-04-29T09:42:03.483Z,73.57
2023-04-29T09:44:38.601Z,72.37
2023-04-29T09:47:09.683Z,71.21
2023-04-29T09:49:42.095Z,70.12
2023-04-29T09:52:13.747Z,70.01
2023-04-29T09:54:44.957Z,69.55
2023-04-29T09:57:16.159Z,68.92
2023-04-29T09:59:56.043Z,68.61
2023-04-29T10:02:26.798Z,68.85
2023-04-29T10:05:04.496Z,68.79
2023-04-29T10:07:39.551Z,68.67
2023-04-29T10:13:00.946Z,67.63
2023-04-29T10:15:45.519Z,66.14
2023-04-29T10:18:22.290Z,66.20
2023-04-29T10:20:52.897Z,66.27
2023-04-29T10:23:26.932Z,67.06
2023-04-29T10:26:06.401Z,67.52
2023-04-29T10:28:47.725Z,68.34
2023-04-29T10:34:09.622Z,70.10
2023-04-29T10:36:45.972Z,69.50
2023-04-29T10:39:25.814Z,69.62
2023-04-29T10:41:59.234Z,67.94
2023-04-29T10:44:33.252Z,68.18
2023-04-29T10:47:38.064Z,68.29
2023-04-29T10:50:21.484Z,68.38
2023-04-29T10:53:03.833Z,68.20
2023-04-29T10:55:34.429Z,68.24
2023-04-29T10:58:06.404Z,68.07
2023-04-29T11:00:38.024Z,68.66
2023-04-29T11:03:09.537Z,69.48
2023-04-29T11:05:53.735Z,70.11
2023-04-29T11:08:26.766Z,70.80
2023-04-29T11:10:58.644Z,69.61
2023-04-29T11:13:34.311Z,68.49
2023-04-29T11:16:10.329Z,68.13
2023-04-29T11:19:01.064Z,68.69
2023-04-29T11:21:41.010Z,69.21
2023-04-29T11:24:15.848Z,68.42
2023-04-29T11:26:46.677Z,68.04
2023-04-29T11:29:17.094Z,68.00
2023-04-29T11:31:47.119Z,69.91
2023-04-29T11:34:17.042Z,70.33
2023-04-29T11:36:51.353Z,69.28
2023-04-29T11:39:21.548Z,69.63
2023-04-29T11:41:57.220Z,69.14
2023-04-29T11:44:27.123Z,69.94
2023-04-29T11:46:57.195Z,69.76
2023-04-29T11:49:32.993Z,70.11
2023-04-29T11:52:05.593Z,70.49
2023-04-29T11:54:36.983Z,70.70
2023-04-29T11:57:07.442Z,70.90
2023-04-29T11:59:37.595Z,69.50
2023-04-29T12:02:07.530Z,68.13
2023-04-29T12:04:42.986Z,67.17
2023-04-29T12:07:17.759Z,66.25
2023-04-29T12:09:48.496Z,65.47
2023-04-29T12:12:18.828Z,65.28
2023-04-29T12:14:48.811Z,64.23
2023-04-29T12:17:19.084Z,64.04
2023-04-29T12:19:49.496Z,64.70
2023-04-29T12:22:22.759Z,64.35
2023-04-29T12:24:56.937Z,64.68
2023-04-29T12:27:27.125Z,65.11
2023-04-29T12:29:56.968Z,65.71
2023-04-29T12:32:28.559Z,66.71
2023-04-29T12:34:58.669Z,67.70
2023-04-29T12:37:31.223Z,69.43
2023-04-29T12:40:01.357Z,70.65
2023-04-29T12:42:36.372Z,71.44
2023-04-29T12:45:09.879Z,71.83
2023-04-29T12:47:42.488Z,72.65
2023-04-29T12:50:14.226Z,73.02
2023-04-29T12:52:53.005Z,72.57
2023-04-29T12:55:28.371Z,72.43
2023-04-29T12:58:09.732Z,73.02
2023-04-29T13:00:48.278Z,73.67
2023-04-29T13:03:22.910Z,73.56
2023-04-29T13:05:57.869Z,72.63
2023-04-29T13:08:34.381Z,72.78
2023-04-29T13:11:04.280Z,72.91
2023-04-29T13:13:34.068Z,72.78
2023-04-29T13:16:07.749Z,73.06
2023-04-29T13:18:39.013Z,73.25
2023-04-29T13:21:09.043Z,73.65
2023-04-29T13:23:41.454Z,73.72
2023-04-29T13:26:13.209Z,73.72
2023-04-29T13:28:43.806Z,74.28
2023-04-29T13:31:13.709Z,74.73
2023-04-29T13:33:43.623Z,75.29
2023-04-29T13:36:13.526Z,75.76
2023-04-29T13:38:48.132Z,75.89
2023-04-29T13:41:20.448Z,76.55
2023-04-29T13:43:51.129Z,77.09
2023-04-29T13:46:21.318Z,77.29
2023-04-29T13:52:06.670Z,77.04
2023-04-29T14:02:23.179Z,78.10
2023-04-29T14:04:45.058Z,78.35
2023-04-29T14:07:17.475Z,78.10
2023-04-29T14:09:49.870Z,78.11
2023-04-29T14:12:19.666Z,78.56
2023-04-29T14:14:49.503Z,78.76
2023-04-29T14:17:19.314Z,78.20
2023-04-29T14:19:49.158Z,78.37
2023-04-29T14:22:18.989Z,78.67
2023-04-29T14:24:51.931Z,78.81
2023-04-29T14:27:22.184Z,78.82
2023-04-29T14:29:52.027Z,79.25
2023-04-29T14:32:21.836Z,79.49
2023-04-29T14:34:53.327Z,79.62
2023-04-29T14:37:25.146Z,79.82
2023-04-29T14:39:58.132Z,80.21
2023-04-29T14:42:29.361Z,80.64
2023-04-29T14:45:02.240Z,80.89
2023-04-29T14:47:35.038Z,81.11
2023-04-29T14:50:08.194Z,80.89
2023-04-29T14:55:41.463Z,80.60
2023-04-29T14:58:13.664Z,80.61
2023-04-29T15:00:51.247Z,81.14
2023-04-29T15:03:28.436Z,81.15
2023-04-29T15:06:02.556Z,80.97
2023-04-29T15:08:40.516Z,80.90
2023-04-29T15:11:14.499Z,80.93
2023-04-29T15:13:46.550Z,81.04
2023-04-29T15:16:16.461Z,81.31
2023-04-29T15:18:46.754Z,81.51
2023-04-29T15:21:18.894Z,81.70
2023-04-29T15:23:48.888Z,81.89
2023-04-29T15:26:22.019Z,82.05
2023-04-29T15:28:51.872Z,82.34
2023-04-29T15:31:24.305Z,82.61
2023-04-29T15:33:57.184Z,82.65
2023-04-29T15:36:32.362Z,82.90
2023-04-29T15:39:02.394Z,83.11
2023-04-29T15:41:35.568Z,82.97
2023-04-29T15:44:05.536Z,83.01
2023-04-29T15:46:35.403Z,83.38
2023-04-29T15:49:06.236Z,83.38
2023-04-29T15:51:36.108Z,83.45
2023-04-29T15:54:07.514Z,82.84
2023-04-29T15:56:40.326Z,82.76
2023-04-29T15:59:10.178Z,82.65
2023-04-29T16:01:40.075Z,82.63
2023-04-29T16:04:11.530Z,82.70
2023-04-29T16:06:46.910Z,82.57
2023-04-29T16:09:16.852Z,82.64
2023-04-29T16:11:49.299Z,82.70
2023-04-29T16:14:19.189Z,82.94
2023-04-29T16:16:49.069Z,83.10
2023-04-29T16:19:18.994Z,82.76
2023-04-29T16:21:48.852Z,82.28
2023-04-29T16:24:18.917Z,81.98
2023-04-29T16:26:52.448Z,82.29
2023-04-29T16:29:22.384Z,82.59
2023-04-29T16:31:52.339Z,82.98
2023-04-29T16:34:22.254Z,82.65
2023-04-29T16:36:52.123Z,82.53
2023-04-29T16:39:21.925Z,82.73
2023-04-29T16:41:54.489Z,82.70
2023-04-29T16:44:24.346Z,82.14
2023-04-29T16:46:54.996Z,82.13
2023-04-29T16:49:28.311Z,82.17
2023-04-29T16:51:58.210Z,82.34
2023-04-29T16:54:28.045Z,82.51
2023-04-29T16:57:00.503Z,82.45
2023-04-29T16:59:31.113Z,82.38
2023-04-29T17:02:03.042Z,82.21
2023-04-29T17:04:34.168Z,81.97
2023-04-29T17:07:04.339Z,82.11
2023-04-29T17:09:38.304Z,82.05
2023-04-29T17:12:11.302Z,81.78
2023-04-29T17:14:41.151Z,81.85
2023-04-29T17:17:21.758Z,81.80
2023-04-29T17:19:55.791Z,82.26
2023-04-29T17:22:36.865Z,82.41
2023-04-29T17:25:08.484Z,82.67
2023-04-29T17:27:41.258Z,83.23
2023-04-29T17:30:17.485Z,83.75
2023-04-29T17:32:56.305Z,84.31
2023-04-29T17:35:27.492Z,84.53
2023-04-29T17:37:57.278Z,84.54
2023-04-29T17:40:27.391Z,84.76
2023-04-29T17:42:59.760Z,85.10
2023-04-29T17:45:29.656Z,85.19
2023-04-29T17:47:59.512Z,85.42
2023-04-29T17:50:30.932Z,85.48
2023-04-29T17:53:00.820Z,85.59
2023-04-29T17:55:31.198Z,85.66
2023-04-29T17:58:03.603Z,85.65
2023-04-29T18:00:35.234Z,85.82
2023-04-29T18:03:05.237Z,85.69
2023-04-29T18:05:37.483Z,85.57
2023-04-29T18:08:08.067Z,85.87
2023-04-29T18:10:37.884Z,85.78
2023-04-29T18:13:10.260Z,85.67
2023-04-29T18:15:40.108Z,85.73
2023-04-29T18:18:10.081Z,85.35
2023-04-29T18:20:43.261Z,85.13
2023-04-29T18:23:14.235Z,85.11
2023-04-29T18:25:44.112Z,85.32
2023-04-29T18:28:24.627Z,85.40
2023-04-29T18:30:57.042Z,86.00
2023-04-29T18:33:27.012Z,86.43
2023-04-29T18:35:57.416Z,86.85
2023-04-29T18:38:27.337Z,87.35
2023-04-29T18:40:57.243Z,87.68
2023-04-29T18:43:31.137Z,88.08
2023-04-29T18:46:02.916Z,88.30
2023-04-29T18:48:32.756Z,88.58
2023-04-29T18:51:04.526Z,88.51
2023-04-29T18:53:34.507Z,88.49
2023-04-29T18:56:07.406Z,88.46
2023-04-29T18:58:39.795Z,88.26
2023-04-29T19:01:09.941Z,88.37
2023-04-29T19:03:40.481Z,88.27
2023-04-29T19:06:10.475Z,87.92
2023-04-29T19:08:40.340Z,87.65
2023-04-29T19:11:10.137Z,87.22
2023-04-29T19:13:42.579Z,86.52
2023-04-29T19:16:13.295Z,86.22
2023-04-29T19:18:43.222Z,86.08
2023-04-29T19:21:14.929Z,85.91
2023-04-29T19:23:44.937Z,85.73
2023-04-29T19:26:18.568Z,85.54
2023-04-29T19:28:50.982Z,85.46
2023-04-29T19:31:20.869Z,85.47
2023-04-29T19:33:52.535Z,85.41
2023-04-29T19:36:22.467Z,85.06
2023-04-29T19:38:52.334Z,85.13
2023-04-29T19:41:22.760Z,84.96
2023-04-29T19:43:55.195Z,84.98
2023-04-29T19:46:25.086Z,84.74
2023-04-29T19:48:55.262Z,84.59
2023-04-29T19:51:25.451Z,84.57
2023-04-29T19:53:56.722Z,84.59
2023-04-29T19:56:26.637Z,84.52
2023-04-29T19:58:59.075Z,84.42
2023-04-29T20:01:28.904Z,84.25
2023-04-29T20:03:58.698Z,84.08
2023-04-29T20:06:29.935Z,84.26
2023-04-29T20:08:59.769Z,84.08
2023-04-29T20:11:29.744Z,84.07
2023-04-29T20:14:36.860Z,84.03
2023-04-29T20:17:00.247Z,83.94
2023-04-29T20:52:51.637Z,84.35
2023-04-29T20:55:21.482Z,83.75
2023-04-29T20:57:51.960Z,83.49
2023-04-29T21:00:21.891Z,83.33
2023-04-29T21:02:51.739Z,83.39
2023-04-29T21:05:21.600Z,83.31
2023-04-29T21:07:54.156Z,83.45
2023-04-29T21:10:24.173Z,83.77
2023-04-29T21:12:54.809Z,84.01
2023-04-29T21:15:24.837Z,84.12
2023-04-29T21:17:54.709Z,84.33
2023-04-29T21:20:25.318Z,84.43
2023-04-29T21:22:58.548Z,84.60
2023-04-29T21:25:28.464Z,84.76
2023-04-29T21:27:58.314Z,84.76
2023-04-29T21:30:28.689Z,84.80
2023-04-29T21:32:58.559Z,84.74
2023-04-29T21:35:29.694Z,84.85
2023-04-29T21:38:02.265Z,84.85
2023-04-29T21:40:32.170Z,84.84
2023-04-29T21:43:02.223Z,85.09
2023-04-29T21:45:34.875Z,85.09
2023-04-29T21:48:16.359Z,85.04
2023-04-29T21:50:47.011Z,84.99
2023-04-29T21:53:19.776Z,85.01
2023-04-29T21:55:49.673Z,85.11
2023-04-29T23:41:23.325Z,87.22
2023-04-29T23:43:53.137Z,87.28
2023-04-29T23:46:23.161Z,87.23
2023-04-29T23:48:53.028Z,87.33
2023-04-29T23:51:22.925Z,87.29
2023-04-29T23:53:52.854Z,87.50
2023-04-29T23:56:30.620Z,87.42
2023-04-29T23:59:00.493Z,87.51
